Time;durP1;ratioP1;P1;durP2;ratioP2;P2;SDS_P1;SDS_P2;PMS_P1;PMS_P2;Temp;Humidity;BMP_temperature;BMP_pressure;BME280_temperature;BME280_humidity;BME280_pressure;Samples;Min_cycle;Max_cycle;Signal;HPM_P1;HPM_P2
2022/09/08 00:00:39;;;;;;;6.70;5.60;;;;;;;17.20;83.35;100331.55;106656;1271;74101;-82
2022/09/08 00:03:10;;;;;;;7.30;5.50;;;;;;;17.16;83.58;100331.41;106820;1271;71139;-82
2022/09/08 00:05:46;;;;;;;6.90;5.50;;;;;;;17.12;83.87;100327.26;106573;1271;73713;-81
2022/09/08 00:08:13;;;;;;;7.60;5.90;;;;;;;17.06;84.18;100324.48;106711;1271;63405;-79
2022/09/08 00:10:41;;;;;;;7.00;5.80;;;;;;;17.01;84.31;100320.55;106700;1269;60468;-82
2022/09/08 00:13:09;;;;;;;7.60;5.90;;;;;;;16.97;84.55;100324.40;107007;1271;74316;-82
2022/09/08 00:15:37;;;;;;;9.30;6.20;;;;;;;16.93;84.63;100328.20;106993;1271;71016;-81
2022/09/08 00:18:06;;;;;;;7.70;5.90;;;;;;;16.87;84.95;100323.33;106649;1270;73698;-83
2022/09/08 00:20:33;;;;;;;7.00;6.30;;;;;;;16.83;85.12;100323.42;106959;1271;62270;-82
2022/09/08 00:23:00;;;;;;;7.10;6.20;;;;;;;16.78;85.24;100324.52;106954;1271;61506;-82
2022/09/08 00:25:26;;;;;;;7.70;6.00;;;;;;;16.73;85.43;100328.63;107116;1271;74271;-82
2022/09/08 00:27:53;;;;;;;7.70;6.30;;;;;;;16.67;85.65;100320.48;107441;1270;71285;-83
2022/09/08 00:30:20;;;;;;;7.40;6.60;;;;;;;16.63;85.86;100321.15;108592;1271;73167;-83
2022/09/08 00:32:47;;;;;;;7.30;6.30;;;;;;;16.57;85.98;100310.51;108467;1271;62151;-82
2022/09/08 00:35:18;;;;;;;10.10;6.50;;;;;;;16.52;86.09;100307.25;108521;1270;59300;-84
2022/09/08 00:37:49;;;;;;;7.30;6.20;;;;;;;16.47;86.29;100301.91;107607;1270;75201;-80
2022/09/08 00:40:16;;;;;;;7.90;6.90;;;;;;;16.42;86.78;100291.16;106718;1271;72133;-84
2022/09/08 00:42:43;;;;;;;8.10;6.70;;;;;;;16.37;87.08;100280.11;107065;1271;73457;-82
2022/09/08 00:45:12;;;;;;;8.60;7.10;;;;;;;16.32;87.37;100282.89;106421;1271;62339;-89
2022/09/08 00:47:48;;;;;;;8.50;7.40;;;;;;;16.27;87.72;100289.02;106562;1271;60351;-84
2022/09/08 00:50:26;;;;;;;9.20;7.30;;;;;;;16.19;88.16;100285.94;106635;1270;75352;-82
2022/09/08 00:53:00;;;;;;;9.60;7.00;;;;;;;16.16;88.33;100281.48;106565;1270;70386;-82
2022/09/08 00:55:34;;;;;;;9.30;7.80;;;;;;;16.15;88.57;100283.02;106508;1271;72738;-83
2022/09/08 00:58:03;;;;;;;11.70;7.90;;;;;;;16.12;88.74;100281.06;106432;1273;63329;-82
2022/09/08 01:00:35;;;;;;;10.50;7.90;;;;;;;16.10;89.11;100279.78;106787;1273;60745;-82
2022/09/08 01:03:06;;;;;;;9.90;8.40;;;;;;;16.08;89.20;100285.30;106862;1271;73880;-82
2022/09/08 01:06:07;;;;;;;9.70;8.30;;;;;;;16.07;89.57;100287.78;106780;1270;72384;-83
2022/09/08 01:14:46;;;;;;;10.30;8.80;;;;;;;15.96;90.81;100265.55;106515;1271;60551;-83
2022/09/08 01:17:27;;;;;;;9.00;7.60;;;;;;;15.92;90.74;100261.80;106941;1271;72894;-82
2022/09/08 01:19:56;;;;;;;9.00;8.10;;;;;;;15.89;90.81;100254.29;107308;1271;71145;-82
2022/09/08 01:22:35;;;;;;;9.60;8.30;;;;;;;15.89;90.92;100256.72;106570;1271;73703;-84
2022/09/08 01:25:22;;;;;;;9.60;8.60;;;;;;;15.88;91.15;100258.21;106602;1271;61946;-82
2022/09/08 01:28:04;;;;;;;9.60;8.60;;;;;;;15.88;91.49;100264.42;106684;1270;60326;-84
2022/09/08 01:30:33;;;;;;;9.80;8.60;;;;;;;15.88;91.39;100258.67;106796;1271;74135;-85
2022/09/08 01:33:06;;;;;;;10.80;8.90;;;;;;;15.85;91.23;100255.83;106849;1271;73296;-83
2022/09/08 01:35:39;;;;;;;9.00;8.10;;;;;;;15.84;91.34;100255.45;106657;1271;72680;-83
2022/09/08 01:38:08;;;;;;;9.70;8.40;;;;;;;15.82;91.29;100260.25;106581;1271;60916;-83
2022/09/08 01:40:38;;;;;;;10.70;8.60;;;;;;;15.80;91.39;100260.36;106544;1271;60860;-83
2022/09/08 01:43:09;;;;;;;12.50;9.20;;;;;;;15.79;91.53;100262.67;106676;1271;73930;-83
2022/09/08 01:45:36;;;;;;;11.80;8.80;;;;;;;15.76;91.50;100258.52;106723;1271;71504;-85
2022/09/08 01:48:07;;;;;;;10.90;8.70;;;;;;;15.74;91.59;100255.19;106588;1271;73168;-83
2022/09/08 01:50:36;;;;;;;10.10;8.90;;;;;;;15.70;91.61;100246.27;106797;1271;63176;-83
2022/09/08 01:53:03;;;;;;;11.60;10.00;;;;;;;15.68;91.76;100247.96;106832;1271;60625;-82
2022/09/08 01:55:30;;;;;;;10.30;9.20;;;;;;;15.66;92.07;100243.33;106592;1271;73828;-84
2022/09/08 01:57:57;;;;;;;11.40;10.20;;;;;;;15.66;92.23;100244.52;106760;1271;72386;-84
2022/09/08 02:00:23;;;;;;;10.20;9.20;;;;;;;15.64;92.46;100243.46;106739;1271;72984;-82
2022/09/08 02:02:50;;;;;;;9.60;8.60;;;;;;;15.63;92.36;100232.64;106428;1270;62277;-82
2022/09/08 02:05:17;;;;;;;10.80;9.40;;;;;;;15.62;92.41;100231.18;106809;1271;60543;-83
2022/09/08 02:07:50;;;;;;;10.70;9.70;;;;;;;15.61;92.45;100225.98;106474;1270;73867;-86
2022/09/08 02:10:17;;;;;;;12.30;9.40;;;;;;;15.61;92.54;100226.20;106673;1271;71122;-83
2022/09/08 02:12:44;;;;;;;11.30;9.60;;;;;;;15.60;92.52;100225.42;106629;1271;73864;-83
2022/09/08 02:15:11;;;;;;;11.70;10.00;;;;;;;15.59;92.50;100225.22;106644;1271;61978;-84
2022/09/08 02:17:40;;;;;;;13.00;10.70;;;;;;;15.58;92.55;100222.96;106564;1271;61857;-85
2022/09/08 02:20:08;;;;;;;13.60;12.10;;;;;;;15.55;92.58;100226.61;106462;1271;75660;-85
2022/09/08 02:22:35;;;;;;;15.20;13.60;;;;;;;15.54;92.71;100227.15;106460;1271;72311;-83
2022/09/08 02:25:02;;;;;;;15.40;13.70;;;;;;;15.52;92.98;100226.67;106322;1271;73652;-84
2022/09/08 02:27:29;;;;;;;16.70;14.60;;;;;;;15.51;93.15;100228.45;106553;1271;63423;-83
2022/09/08 02:29:56;;;;;;;16.70;14.80;;;;;;;15.50;93.33;100224.73;106740;1271;60617;-82
2022/09/08 02:32:23;;;;;;;14.90;13.40;;;;;;;15.48;93.45;100219.99;106572;1270;73365;-85
2022/09/08 02:34:52;;;;;;;16.60;14.90;;;;;;;15.48;93.49;100218.69;106363;1271;71888;-83
2022/09/08 02:37:19;;;;;;;16.90;13.60;;;;;;;15.46;93.63;100217.89;106667;1271;73655;-83
2022/09/08 02:39:47;;;;;;;16.00;14.30;;;;;;;15.44;93.70;100213.01;106184;1271;62503;-85
2022/09/08 02:42:15;;;;;;;15.70;13.70;;;;;;;15.42;93.92;100212.81;106499;1271;61432;-83
2022/09/08 02:44:42;;;;;;;16.00;14.20;;;;;;;15.41;94.11;100219.31;106643;1273;75670;-82
2022/09/08 02:47:10;;;;;;;17.50;14.60;;;;;;;15.41;94.29;100219.20;106583;1271;71582;-82
2022/09/08 02:49:37;;;;;;;16.90;14.70;;;;;;;15.41;94.44;100218.95;107423;1271;72673;-82
2022/09/08 02:52:07;;;;;;;16.60;14.50;;;;;;;15.42;94.54;100217.74;106491;1270;62746;-82
2022/09/08 02:54:35;;;;;;;15.90;14.30;;;;;;;15.40;94.46;100211.11;106389;1271;61729;-82
2022/09/08 02:57:02;;;;;;;14.50;13.00;;;;;;;15.42;94.43;100209.68;106414;1271;73739;-81
2022/09/08 02:59:29;;;;;;;16.50;14.70;;;;;;;15.43;94.50;100211.16;106195;1271;71892;-82
2022/09/08 03:01:58;;;;;;;18.20;16.30;;;;;;;15.43;94.46;100214.00;106600;1271;73818;-82
2022/09/08 03:04:26;;;;;;;18.10;15.80;;;;;;;15.44;94.64;100217.27;106508;1273;61902;-82
2022/09/08 03:06:53;;;;;;;17.70;14.70;;;;;;;15.46;94.85;100219.36;106365;1271;60929;-83
2022/09/08 03:09:20;;;;;;;16.00;14.30;;;;;;;15.47;94.99;100219.31;106290;1271;73924;-82
2022/09/08 03:11:48;;;;;;;16.00;13.80;;;;;;;15.48;94.84;100208.56;106345;1271;72712;-80
2022/09/08 03:14:31;;;;;;;16.80;14.90;;;;;;;15.48;94.90;100203.95;106254;1271;72913;-82
2022/09/08 03:16:58;;;;;;;17.50;15.70;;;;;;;15.48;94.99;100193.80;106393;1271;63007;-80
2022/09/08 03:19:25;;;;;;;16.50;14.80;;;;;;;15.50;95.15;100189.09;106612;1271;61326;-82
2022/09/08 03:21:52;;;;;;;17.10;14.60;;;;;;;15.53;95.19;100186.36;106713;1271;75640;-84
2022/09/08 03:24:22;;;;;;;18.60;15.20;;;;;;;15.54;95.05;100187.17;106926;1271;72261;-82
2022/09/08 03:26:49;;;;;;;16.90;15.20;;;;;;;15.55;95.01;100187.45;107026;1271;73923;-83
2022/09/08 03:29:16;;;;;;;17.80;15.80;;;;;;;15.56;94.92;100194.48;106671;1271;63333;-82
2022/09/08 03:31:50;;;;;;;18.80;16.80;;;;;;;15.52;94.75;100192.46;106351;1271;61302;-82
2022/09/08 03:34:17;;;;;;;20.80;18.50;;;;;;;15.51;95.08;100189.91;106259;1271;75125;-81
2022/09/08 03:36:44;;;;;;;23.00;19.70;;;;;;;15.49;95.45;100189.48;106214;1271;70819;-85
2022/09/08 03:39:11;;;;;;;23.80;19.20;;;;;;;15.48;95.68;100186.15;106540;1271;73962;-85
2022/09/08 03:41:38;;;;;;;31.60;20.60;;;;;;;15.49;95.86;100185.04;106844;1271;62983;-82
2022/09/08 03:44:05;;;;;;;39.50;23.50;;;;;;;15.48;95.99;100174.69;106432;1271;61224;-83
2022/09/08 03:46:32;;;;;;;44.80;24.30;;;;;;;15.48;96.13;100176.03;106807;1274;75087;-83
2022/09/08 03:49:00;;;;;;;48.20;24.90;;;;;;;15.49;96.33;100167.89;107219;1271;71344;-84
2022/09/08 03:51:27;;;;;;;32.20;25.20;;;;;;;15.52;96.44;100167.20;107403;1271;73002;-83
2022/09/08 03:56:48;;;;;;;30.40;24.70;;;;;;;15.57;96.69;100158.43;106884;1271;60453;-84
2022/09/08 03:59:15;;;;;;;29.40;23.90;;;;;;;15.59;96.70;100156.40;107357;1271;74251;-83
2022/09/08 04:01:42;;;;;;;30.00;23.40;;;;;;;15.60;96.60;100154.79;107157;1271;72021;-84
2022/09/08 04:04:09;;;;;;;30.50;24.50;;;;;;;15.61;96.79;100148.55;107493;1271;74446;-84
2022/09/08 04:06:36;;;;;;;34.70;27.00;;;;;;;15.64;96.82;100141.62;107195;1270;61169;-83
2022/09/08 04:09:03;;;;;;;33.80;26.60;;;;;;;15.66;96.90;100128.64;107518;1270;60408;-83
2022/09/08 04:11:31;;;;;;;36.20;26.60;;;;;;;15.67;96.92;100128.46;107498;1271;75051;-81
2022/09/08 04:13:58;;;;;;;37.60;27.70;;;;;;;15.66;96.77;100125.42;107707;1271;72037;-82
2022/09/08 04:16:26;;;;;;;39.70;26.80;;;;;;;15.68;97.02;100118.71;107762;1271;73056;-82
2022/09/08 04:18:53;;;;;;;42.60;28.50;;;;;;;15.70;97.22;100113.55;107543;1271;62072;-83
2022/09/08 04:21:19;;;;;;;39.70;28.90;;;;;;;15.73;97.33;100117.08;108123;1270;60868;-82
2022/09/08 04:23:46;;;;;;;37.50;27.50;;;;;;;15.76;97.34;100120.30;107319;1271;74623;-81
2022/09/08 04:26:13;;;;;;;37.00;27.30;;;;;;;15.79;97.33;100115.04;107829;1271;71226;-83
2022/09/08 04:28:41;;;;;;;34.40;26.00;;;;;;;15.79;97.21;100103.73;106840;1271;72720;-78
2022/09/08 04:31:11;;;;;;;30.50;23.40;;;;;;;15.79;97.18;100093.73;106933;1271;62257;-78
2022/09/08 04:33:38;;;;;;;30.90;23.20;;;;;;;15.81;97.38;100089.23;107887;1271;59470;-77
2022/09/08 04:36:11;;;;;;;28.00;20.90;;;;;;;15.83;97.28;100087.80;106620;1271;74135;-79
2022/09/08 04:38:53;;;;;;;26.10;20.90;;;;;;;15.86;97.41;100082.24;106409;1270;71547;-79
2022/09/08 04:41:20;;;;;;;24.90;19.90;;;;;;;15.88;97.41;100082.74;106729;1271;74180;-81
2022/09/08 04:43:47;;;;;;;22.50;19.20;;;;;;;15.89;97.41;100083.55;106159;1271;62751;-79
2022/09/08 04:46:16;;;;;;;21.60;19.10;;;;;;;15.90;97.25;100085.02;106320;1271;60501;-78
2022/09/08 04:48:44;;;;;;;29.60;24.00;;;;;;;15.90;97.36;100089.47;106389;1270;75057;-79
2022/09/08 04:51:14;;;;;;;23.00;20.70;;;;;;;15.92;97.69;100093.32;106017;1271;71333;-81
2022/09/08 04:53:41;;;;;;;23.40;20.80;;;;;;;15.95;97.89;100082.39;106193;1271;72918;-78
2022/09/08 04:56:09;;;;;;;22.60;20.00;;;;;;;15.97;97.85;100076.51;105965;1271;62176;-80
2022/09/08 04:58:39;;;;;;;23.20;20.80;;;;;;;15.97;97.83;100077.26;105996;1271;60630;-83
2022/09/08 05:01:07;;;;;;;21.70;19.40;;;;;;;15.97;97.87;100090.27;106336;1270;74067;-82
2022/09/08 05:03:35;;;;;;;21.00;18.90;;;;;;;15.97;98.00;100096.23;106298;1271;71356;-80
2022/09/08 05:06:13;;;;;;;20.90;18.70;;;;;;;15.96;97.81;100097.75;106390;1271;72991;-80
2022/09/08 05:08:45;;;;;;;21.30;19.10;;;;;;;15.96;97.58;100095.36;106489;1271;63230;-80
2022/09/08 05:11:12;;;;;;;20.30;18.20;;;;;;;15.97;97.52;100088.06;106457;1271;60632;-83
2022/09/08 05:13:40;;;;;;;29.50;26.20;;;;;;;15.99;97.28;100084.59;106201;1271;73799;-76
2022/09/08 05:16:18;;;;;;;20.10;18.10;;;;;;;16.01;97.31;100087.29;106446;1271;72688;-79
2022/09/08 05:19:00;;;;;;;19.60;17.70;;;;;;;16.03;97.08;100085.92;106375;1271;74052;-77
2022/09/08 05:21:29;;;;;;;18.10;16.20;;;;;;;16.04;96.89;100078.79;106722;1271;63161;-82
2022/09/08 05:23:56;;;;;;;18.90;16.90;;;;;;;16.05;96.73;100084.06;105905;1271;60559;-81
2022/09/08 05:26:24;;;;;;;18.30;16.30;;;;;;;16.07;97.00;100091.60;105739;1271;73965;-81
2022/09/08 05:28:52;;;;;;;18.30;16.30;;;;;;;16.07;96.74;100099.59;105945;1271;71286;-82
2022/09/08 05:31:22;;;;;;;18.60;16.60;;;;;;;16.08;96.66;100097.78;105732;1271;73753;-79
2022/09/08 05:33:50;;;;;;;18.60;16.30;;;;;;;16.05;96.50;100098.30;105395;1271;63392;-79
2022/09/08 05:36:23;;;;;;;17.30;15.50;;;;;;;16.06;96.34;100097.30;106602;1271;60439;-77
2022/09/08 05:38:51;;;;;;;18.20;16.30;;;;;;;16.03;96.17;100090.71;105544;1271;73940;-83
2022/09/08 05:41:18;;;;;;;18.80;16.50;;;;;;;16.04;96.34;100086.80;105837;1274;72676;-79
2022/09/08 05:43:52;;;;;;;19.40;16.10;;;;;;;16.07;96.53;100089.30;106107;1271;75619;-80
2022/09/08 05:46:19;;;;;;;18.30;16.30;;;;;;;16.10;96.52;100087.88;106163;1271;61979;-80
2022/09/08 05:48:46;;;;;;;17.70;15.80;;;;;;;16.13;96.38;100087.79;106237;1271;61729;-83
2022/09/08 05:51:20;;;;;;;19.80;17.50;;;;;;;16.15;96.27;100093.52;106357;1271;74307;-78
2022/09/08 05:53:47;;;;;;;18.80;16.80;;;;;;;16.18;96.26;100094.19;105543;1271;72270;-79
2022/09/08 05:56:18;;;;;;;18.90;16.90;;;;;;;16.21;96.24;100086.48;105798;1271;72483;-79
2022/09/08 05:58:54;;;;;;;18.50;16.60;;;;;;;16.23;96.15;100084.48;105870;1270;62240;-78
2022/09/08 06:01:28;;;;;;;21.70;18.00;;;;;;;16.28;96.35;100082.10;106080;1271;60571;-87
2022/09/08 06:04:04;;;;;;;19.50;17.50;;;;;;;16.32;96.19;100078.73;106202;1274;74022;-82
2022/09/08 06:06:32;;;;;;;20.30;18.20;;;;;;;16.35;96.25;100077.31;106416;1271;71473;-84
2022/09/08 06:09:00;;;;;;;20.10;17.90;;;;;;;16.41;96.22;100082.21;105785;1274;72769;-84
2022/09/08 06:11:30;;;;;;;22.10;19.00;;;;;;;16.46;96.31;100079.10;105938;1274;60674;-85
2022/09/08 06:13:57;;;;;;;20.50;18.50;;;;;;;16.52;96.31;100073.61;106345;1274;59663;-83
2022/09/08 06:16:24;;;;;;;21.40;19.10;;;;;;;16.57;96.18;100076.15;106397;1273;75025;-87
2022/09/08 06:18:53;;;;;;;21.60;19.40;;;;;;;16.62;96.04;100072.46;105585;1274;73948;-83
2022/09/08 06:21:30;;;;;;;21.00;18.70;;;;;;;16.66;96.10;100078.04;105847;1273;72940;-83
2022/09/08 06:24:02;;;;;;;21.80;19.50;;;;;;;16.68;95.86;100073.42;105865;1274;62669;-84
2022/09/08 06:26:55;;;;;;;21.10;18.70;;;;;;;16.70;95.81;100075.67;106033;1274;60479;-81
2022/09/08 06:29:27;;;;;;;20.10;18.20;;;;;;;16.75;95.76;100078.58;105992;1274;73900;-82
2022/09/08 06:32:02;;;;;;;21.70;18.30;;;;;;;16.78;95.87;100077.63;105633;1274;70095;-84
2022/09/08 06:34:37;;;;;;;19.20;17.20;;;;;;;16.81;95.90;100086.57;105957;1274;73714;-84
2022/09/08 06:37:23;;;;;;;18.90;17.00;;;;;;;16.82;95.92;100094.42;106102;1274;62141;-83
2022/09/08 06:39:58;;;;;;;17.60;15.90;;;;;;;16.80;96.03;100097.91;105586;1274;61294;-79
2022/09/08 06:42:41;;;;;;;19.60;17.70;;;;;;;16.76;96.17;100101.79;106289;1273;74166;-82
2022/09/08 06:45:18;;;;;;;19.00;17.10;;;;;;;16.72;96.40;100103.16;105521;1274;72329;-83
2022/09/08 06:47:54;;;;;;;19.70;17.70;;;;;;;16.69;96.49;100101.15;105792;1274;72466;-84
2022/09/08 06:50:21;;;;;;;19.80;17.90;;;;;;;16.73;96.47;100098.55;105746;1274;61944;-84
2022/09/08 06:52:51;;;;;;;19.80;17.60;;;;;;;16.79;96.50;100086.21;105392;1274;61683;-82
2022/09/08 06:56:00;;;;;;;19.40;17.50;;;;;;;16.87;96.43;100075.80;105721;1273;75335;-83
2022/09/08 06:58:47;;;;;;;19.30;17.10;;;;;;;16.98;96.18;100072.82;106838;1274;71372;-82
2022/09/08 07:01:22;;;;;;;19.80;17.70;;;;;;;17.05;95.97;100068.00;106037;1273;73169;-82
2022/09/08 07:04:03;;;;;;;19.80;17.90;;;;;;;17.11;95.75;100068.41;105505;1275;62379;-85
2022/09/08 07:06:37;;;;;;;19.90;18.00;;;;;;;17.19;95.65;100065.36;105875;1274;61820;-81
2022/09/08 07:09:38;;;;;;;20.00;17.80;;;;;;;17.24;95.63;100057.66;105633;1274;74005;-80
2022/09/08 07:12:32;;;;;;;19.30;17.30;;;;;;;17.33;95.30;100057.85;105475;1274;71451;-83
2022/09/08 07:15:21;;;;;;;19.40;17.50;;;;;;;17.38;95.05;100059.23;107311;1274;72810;-80
2022/09/08 07:17:53;;;;;;;20.20;18.00;;;;;;;17.41;94.72;100058.55;105856;1274;60927;-80
2022/09/08 07:20:20;;;;;;;19.80;17.70;;;;;;;17.47;94.81;100057.30;105623;1274;61192;-80
2022/09/08 07:22:56;;;;;;;19.70;17.80;;;;;;;17.51;94.59;100053.78;105762;1274;75254;-83
2022/09/08 07:25:35;;;;;;;20.20;18.00;;;;;;;17.58;94.53;100050.06;105387;1274;72291;-82
2022/09/08 07:28:21;;;;;;;19.70;17.70;;;;;;;17.64;94.22;100045.73;106117;1274;73680;-83
2022/09/08 07:31:11;;;;;;;19.50;17.50;;;;;;;17.69;94.15;100041.95;105175;1274;61813;-83
2022/09/08 07:33:41;;;;;;;19.60;17.50;;;;;;;17.76;94.18;100041.68;105718;1274;61475;-83
2022/09/08 07:36:29;;;;;;;20.40;18.30;;;;;;;17.84;94.06;100042.88;105655;1274;72985;-84
2022/09/08 07:39:01;;;;;;;18.70;16.80;;;;;;;17.92;93.74;100037.08;105598;1274;72431;-81
2022/09/08 07:41:37;;;;;;;19.60;17.70;;;;;;;17.99;93.70;100037.35;105642;1273;73231;-80
2022/09/08 07:44:13;;;;;;;19.20;16.90;;;;;;;18.08;93.58;100038.17;105261;1274;62123;-83
2022/09/08 07:46:43;;;;;;;17.50;15.70;;;;;;;18.17;93.17;100033.61;105417;1274;61215;-80
2022/09/08 07:49:24;;;;;;;17.90;16.10;;;;;;;18.18;92.51;100032.46;105558;1274;75089;-79
2022/09/08 07:52:36;;;;;;;18.60;16.60;;;;;;;18.20;92.35;100033.47;105833;1274;72578;-80
2022/09/08 07:55:23;;;;;;;19.30;17.20;;;;;;;18.25;92.51;100037.35;105509;1274;73735;-81
2022/09/08 07:58:10;;;;;;;20.30;18.20;;;;;;;18.30;92.34;100034.29;105405;1274;62533;-80
2022/09/08 08:01:07;;;;;;;20.50;17.60;;;;;;;18.39;92.08;100033.51;105450;1273;61860;-84
2022/09/08 08:04:26;;;;;;;20.40;18.30;;;;;;;18.46;91.56;100030.57;105659;1274;73401;-83
2022/09/08 08:07:18;;;;;;;19.20;17.30;;;;;;;18.58;91.51;100031.98;105539;1274;73070;-81
2022/09/08 08:10:17;;;;;;;19.60;16.50;;;;;;;18.67;91.26;100034.61;105450;1274;73434;-82
2022/09/08 08:13:29;;;;;;;18.00;16.20;;;;;;;18.78;90.85;100026.58;105473;1274;60955;-84
2022/09/08 08:16:09;;;;;;;19.10;17.00;;;;;;;18.86;90.36;100027.35;105448;1273;60582;-82
2022/09/08 08:18:58;;;;;;;18.70;16.60;;;;;;;18.93;90.35;100029.12;105745;1273;74256;-85
2022/09/08 08:21:33;;;;;;;19.50;17.10;;;;;;;19.02;90.28;100032.60;105479;1274;71398;-80
2022/09/08 08:24:30;;;;;;;17.60;15.60;;;;;;;19.09;90.05;100036.73;105035;1274;72959;-76
2022/09/08 08:27:13;;;;;;;16.40;14.60;;;;;;;19.18;89.94;100042.92;104982;1273;63128;-81
2022/09/08 08:30:01;;;;;;;15.90;14.20;;;;;;;19.25;89.44;100045.69;105254;1274;60546;-80
2022/09/08 08:32:43;;;;;;;15.10;13.50;;;;;;;19.25;88.55;100047.70;105504;1273;73855;-79
2022/09/08 08:35:26;;;;;;;16.30;14.60;;;;;;;19.24;88.38;100047.15;104095;1274;1574079;-79
2022/09/08 08:37:53;;;;;;;14.70;13.10;;;;;;;19.26;88.60;100050.50;106337;1274;71695;-81
2022/09/08 08:40:31;;;;;;;14.70;13.20;;;;;;;19.30;88.35;100047.82;105428;1273;61206;-81
2022/09/08 08:43:12;;;;;;;14.40;12.90;;;;;;;19.35;88.18;100045.92;105479;1273;60535;-81
2022/09/08 08:46:16;;;;;;;14.50;12.90;;;;;;;19.37;87.64;100044.58;105792;1273;75194;-84
2022/09/08 08:49:22;;;;;;;16.00;14.50;;;;;;;19.39;87.33;100042.55;105892;1274;71989;-82
2022/09/08 08:52:10;;;;;;;15.20;13.60;;;;;;;19.43;87.59;100042.50;105402;1274;74218;-84
2022/09/08 08:54:43;;;;;;;16.50;13.50;;;;;;;19.52;87.50;100037.23;105532;1274;62620;-78
2022/09/08 08:57:40;;;;;;;15.60;14.00;;;;;;;19.61;86.93;100033.24;105438;1273;60331;-83
2022/09/08 09:00:21;;;;;;;13.80;12.40;;;;;;;19.65;86.25;100031.42;105333;1274;72965;-84
2022/09/08 09:03:06;;;;;;;12.60;11.10;;;;;;;19.63;84.95;100024.13;105780;1274;71434;-84
2022/09/08 09:06:01;;;;;;;13.60;11.30;;;;;;;19.56;84.75;100017.42;105608;1273;73117;-82
2022/09/08 09:08:49;;;;;;;14.20;12.70;;;;;;;19.50;85.15;100012.35;105556;1274;62014;-84
2022/09/08 09:11:44;;;;;;;11.10;10.00;;;;;;;19.43;85.13;100008.61;105491;1274;60388;-83
2022/09/08 09:14:29;;;;;;;11.60;10.40;;;;;;;19.28;84.66;100011.71;105557;1274;75012;-84
2022/09/08 09:17:34;;;;;;;13.30;11.70;;;;;;;19.23;85.11;100018.58;106007;1273;71878;-83
2022/09/08 09:20:11;;;;;;;12.50;11.00;;;;;;;19.24;85.73;100024.77;105664;1274;73229;-81
2022/09/08 09:22:59;;;;;;;11.00;9.80;;;;;;;19.28;85.33;100030.58;105772;1271;62448;-80
2022/09/08 09:25:36;;;;;;;12.90;11.10;;;;;;;19.29;85.23;100032.43;106117;1274;60357;-83
2022/09/08 09:28:06;;;;;;;12.80;10.80;;;;;;;19.39;85.61;100036.32;105758;1273;74938;-81
2022/09/08 09:31:11;;;;;;;12.40;11.20;;;;;;;19.53;85.56;100036.06;105784;1272;72555;-80
2022/09/08 09:33:51;;;;;;;12.10;10.30;;;;;;;19.62;84.82;100036.75;105620;1274;72688;-80
2022/09/08 09:36:37;;;;;;;12.00;10.80;;;;;;;19.68;84.23;100038.83;105640;1272;63623;-83
2022/09/08 09:39:29;;;;;;;12.30;11.00;;;;;;;19.73;83.83;100040.54;105944;1274;61738;-82
2022/09/08 09:41:55;;;;;;;11.40;10.20;;;;;;;19.72;83.42;100047.31;106222;1271;75222;-80
2022/09/08 09:44:22;;;;;;;11.20;9.80;;;;;;;19.70;83.40;100042.42;106006;1273;71176;-81
2022/09/08 09:47:15;;;;;;;13.10;9.90;;;;;;;19.66;83.22;100043.77;106069;1274;74183;-85
2022/09/08 09:50:17;;;;;;;11.20;9.70;;;;;;;19.62;83.28;100046.79;105508;1274;62334;-82
2022/09/08 09:53:38;;;;;;;10.40;9.40;;;;;;;19.64;83.74;100049.92;105879;1274;60488;-82
2022/09/08 09:56:52;;;;;;;10.30;8.00;;;;;;;19.63;83.48;100054.05;105289;1281;74120;-80
2022/09/08 09:59:56;;;;;;;8.70;7.60;;;;;;;19.48;83.15;100059.77;105750;1272;71125;-80
2022/09/08 10:03:00;;;;;;;12.20;8.60;;;;;;;19.37;83.95;100053.52;105870;1271;74387;-84
2022/09/08 10:05:42;;;;;;;8.90;7.70;;;;;;;19.27;84.76;100055.64;105672;1274;62236;-80
2022/09/08 10:08:47;;;;;;;8.30;7.00;;;;;;;19.15;85.30;100055.84;105645;1274;60551;-79
2022/09/08 10:11:42;;;;;;;9.30;7.60;;;;;;;19.02;86.61;100057.27;105846;1272;75153;-80
2022/09/08 10:14:45;;;;;;;9.30;7.30;;;;;;;18.96;86.90;100056.28;105635;1273;71198;-82
2022/09/08 10:17:18;;;;;;;9.40;7.60;;;;;;;18.89;87.93;100061.34;105729;1273;72747;-80
2022/09/08 10:19:59;;;;;;;9.50;7.70;;;;;;;18.83;87.96;100057.52;105686;1274;61432;-79
2022/09/08 10:23:01;;;;;;;8.50;7.60;;;;;;;18.78;88.78;100052.27;105303;1272;61719;-77
2022/09/08 10:25:57;;;;;;;9.60;8.30;;;;;;;18.69;90.49;100049.48;105608;1271;74626;-78
2022/09/08 10:28:56;;;;;;;8.90;7.90;;;;;;;18.63;90.43;100049.17;105236;1273;71501;-80
2022/09/08 10:31:32;;;;;;;8.60;7.70;;;;;;;18.55;90.88;100047.84;105606;1274;74165;-81
2022/09/08 10:34:27;;;;;;;9.80;7.50;;;;;;;18.52;91.04;100046.80;105567;1272;61067;-77
2022/09/08 10:37:03;;;;;;;9.50;7.20;;;;;;;18.45;91.68;100044.99;105506;1274;60840;-74
2022/09/08 10:39:41;;;;;;;8.20;7.10;;;;;;;18.38;92.31;100043.91;105272;1274;73737;-83
2022/09/08 10:42:35;;;;;;;8.70;6.60;;;;;;;18.29;92.37;100037.33;105586;1274;73375;-77
2022/09/08 10:45:41;;;;;;;7.90;6.60;;;;;;;18.20;92.49;100033.04;105093;1273;74507;-78
2022/09/08 10:48:26;;;;;;;6.90;5.90;;;;;;;18.12;92.69;100031.92;105317;1274;62344;-80
2022/09/08 10:51:06;;;;;;;6.90;5.70;;;;;;;18.03;93.31;100031.44;105593;1272;61029;-79
2022/09/08 10:54:14;;;;;;;7.70;6.80;;;;;;;17.96;93.67;100031.83;106051;1272;74321;-78
2022/09/08 10:56:44;;;;;;;7.40;6.60;;;;;;;17.90;94.51;100025.77;105116;1273;71711;-76
2022/09/08 10:59:26;;;;;;;8.00;7.20;;;;;;;17.86;95.24;100029.79;105316;1274;73833;-78
2022/09/08 11:02:33;;;;;;;6.70;6.00;;;;;;;17.82;95.52;100028.20;105474;1271;62280;-77
2022/09/08 11:05:28;;;;;;;7.90;7.10;;;;;;;17.79;95.49;100024.13;105023;1274;60565;-80
2022/09/08 11:08:33;;;;;;;8.70;7.20;;;;;;;17.74;96.15;100028.55;105485;1274;72867;-76
2022/09/08 11:11:06;;;;;;;10.60;8.30;;;;;;;17.71;96.42;100030.63;105309;1274;71130;-76
2022/09/08 11:13:43;;;;;;;9.40;7.40;;;;;;;17.70;97.00;100036.30;105589;1274;71678;-75
2022/09/08 11:16:24;;;;;;;9.60;8.20;;;;;;;17.68;97.09;100037.96;105222;1273;62026;-76
2022/09/08 11:18:53;;;;;;;9.20;7.60;;;;;;;17.65;97.08;100045.38;105440;1271;60501;-76
2022/09/08 11:22:02;;;;;;;10.40;8.40;;;;;;;17.63;96.94;100044.27;105253;1274;75092;-74
2022/09/08 11:24:39;;;;;;;10.50;8.50;;;;;;;17.59;97.88;100050.45;105354;1274;72564;-75
2022/09/08 11:27:25;;;;;;;9.80;8.00;;;;;;;17.59;97.57;100048.21;105087;1271;73582;-76
2022/09/08 11:30:19;;;;;;;9.40;8.40;;;;;;;17.62;97.92;100045.11;105204;1274;62428;-75
2022/09/08 11:33:19;;;;;;;11.50;8.80;;;;;;;17.64;97.89;100043.48;105619;1274;60424;-76
2022/09/08 11:36:01;;;;;;;8.90;7.90;;;;;;;17.65;97.97;100044.41;105158;1272;75119;-73
2022/09/08 11:38:45;;;;;;;9.20;8.30;;;;;;;17.65;98.05;100044.39;105401;1274;71517;-75
2022/09/08 11:41:22;;;;;;;10.40;9.30;;;;;;;17.64;98.17;100041.77;105495;1274;73792;-75
2022/09/08 11:43:54;;;;;;;10.00;8.80;;;;;;;17.65;98.15;100045.91;105586;1272;62212;-76
2022/09/08 11:46:52;;;;;;;10.50;9.00;;;;;;;17.64;98.15;100044.55;105305;1274;60940;-77
2022/09/08 11:49:36;;;;;;;9.70;8.80;;;;;;;17.63;98.53;100047.91;105111;1272;73871;-74
2022/09/08 11:52:29;;;;;;;9.40;8.50;;;;;;;17.60;98.05;100046.67;105774;1271;71485;-75
2022/09/08 11:55:36;;;;;;;13.70;9.60;;;;;;;17.63;98.52;100044.42;105425;1271;71207;-74
2022/09/08 11:58:15;;;;;;;10.70;9.20;;;;;;;17.68;98.58;100046.84;104861;1273;60468;-74
2022/09/08 12:01:11;;;;;;;11.10;9.60;;;;;;;17.70;98.57;100046.38;105181;1274;60669;-75